Wakarusa, IN (46573)

6:59 AM EDT on May 06, 2015 (GMT -0400)
APRSWXNET | | Change Station
CLOSE
Current Station
Personal Weather Station
Location: Wakarusa, IN
Elevation: 816 ft
Nearby Weather Stations
Active Advisory: Special Statement

Elev 816 ft 41.52 °N, 86.09 °W | Updated 30 minutes ago

Overcast
Overcast
54 °F
Feels Like 54 °F
N
1
Wind Variable Wind from ESE
Gusts 6.0 mph

Today
High -- | Low -- °F
--% Chance of Precip.
Yesterday
High -- | Low -- °F
Precip. -- in
6:35 AM 8:47 PM
Waning Gibbous, 94% visible
Pressure 30.21 in
Visibility 0.5 miles
Clouds Overcast 100 ft
Dew Point 53 °F
Humidity 96%
Rainfall in
Snow Depth Not available.
UV 0 out of 12
Pollen .50 out of 12
Air Quality Not available.
Flu Activity Local Activity
METAR KEKM 061050Z 11006KT 1/2SM FG OVC001 12/12 A3021

More Conditions Fewer Conditions

Pressure 30.21 in
Visibility 0.5 miles
Clouds Overcast 100 ft
Dew Point 53 °F
Humidity 96%
Rainfall in
Snow Depth Not available.
UV 0 out of 12
Pollen .50 out of 12
Air Quality Not available.
Flu Activity Local Activity
METAR KEKM 061050Z 11006KT 1/2SM FG OVC001 12/12 A3021

More Conditions Fewer Conditions

10-Day Weather Forecast

Almanac

Astronomy

May. 06, 2015 Rise Set
Actual Time
Civil Twilight
Nautical Twilight
Astronomical Twilight
Moon
Length of Visible Light
Length of Day
Tomorrow will be .
, % of the Moon is Illuminated

Today's Extremes

State Highs State Lows

Community

WunderPhotos

Upload Photos

1,818,859 photos uploaded!

WunderBlogs® & News

Nearby

Air Quality

  Air Quality AQ Index Pollutant
Not available.

Snow Depth

Station Depth Elevation

Earthquake Activity

City Distance Mag. Time & Date
Minimum magnitude displayed is 2.5.

Coastal Water Temperatures

Place Temperature

Stations

Nearby Weather Stations

Station Location Temp. Windchill Dew Point Humidity Wind Precip. Elev Updated Type
                   
Special Statement
Statement as of 5:40 AM CDT on May 06, 2015

... Areas of dense fog this morning...

Fog can be expected this morning... with areas of dense fog in some
locations. The visibility may be reduced to one quarter mile or
less at times where the fog is most dense. Slow down... use low
beam headlights... and allow extra time to reach your destination.
Conditions are expected to gradually improve after 9 am EDT... 8 am
CDT.



640 am EDT Wed may 6 2015 /540 am CDT Wed may 6 2015/

... Areas of dense fog this morning...

Fog can be expected this morning... with areas of dense fog in some
locations. The visibility may be reduced to one quarter mile or
less at times where the fog is most dense. Slow down... use low
beam headlights... and allow extra time to reach your destination.
Conditions are expected to gradually improve after 9 am EDT... 8 am
CDT.